.
WxDataArchive / Data Records for 2012-07-27
2012-07-26 July 2012 2012-07-28

Data Records for Friday, 27 July 2012

Time	Temp	Chill	HIndex	Humid	Dewpt	 Wind 	HiWind	WindDir	Rain 	Barom 
-----	----	-----	------	-----	-----	------	------	-------	-----	----- 
00:00	76.8	76.8	78.1	83	71.2	0	2	315	0.00	29.691 
00:05	76.8	76.8	78.1	83	71.2	0	2	292	0.00	29.691 
00:10	76.8	76.8	78.1	83	71.2	0	2	292	0.00	29.691 
00:15	76.7	76.7	77.9	83	71.1	0	2	292	0.00	29.697 
00:20	76.7	76.7	77.9	83	71.1	1	4	292	0.00	29.697 
00:25	76.7	76.7	77.9	83	71.1	2	4	292	0.00	29.697 
00:30	76.7	76.7	77.9	83	71.1	2	4	270	0.00	29.698 
00:35	76.7	76.7	77.9	84	71.5	1	2	270	0.00	29.698 
00:40	76.5	76.5	77.5	84	71.3	1	3	270	0.00	29.698 
00:45	76.3	76.3	77.2	84	71.1	1	4	270	0.00	29.703 
00:50	76.1	76.1	76.9	83	70.5	0	3	270	0.00	29.703 
00:55	75.6	75.6	76.3	81	69.3	1	4	270	0.00	29.703 
01:00	75.4	75.4	76.3	78	68.0	1	3	292	0.00	29.703 
01:05	75.4	75.4	76.3	78	68.0	0	2	292	0.00	29.703 
01:10	75.3	75.3	76.1	79	68.3	0	1	292	0.00	29.703 
01:15	75.3	75.3	76.0	80	68.7	0	1	292	0.00	29.703 
01:20	74.9	74.9	74.9	79	67.9	0	1	292	0.00	29.703 
01:25	74.6	74.6	74.6	78	67.3	0	1	292	0.00	29.703 
01:30	74.2	74.2	74.2	77	66.5	0	2	292	0.00	29.705 
01:35	74.0	74.0	74.0	76	65.9	0	1	292	0.00	29.705 
01:40	73.9	73.9	73.9	77	66.2	0	1	292	0.00	29.705 
01:45	73.7	73.7	73.7	77	66.0	0	1	292	0.00	29.714 
01:50	73.5	73.5	73.5	77	65.8	0	0	---	0.00	29.714 
01:55	73.3	73.3	73.3	78	66.0	0	0	---	0.00	29.714 
02:00	73.2	73.2	73.2	78	65.9	0	0	---	0.00	29.717 
02:05	73.0	73.0	73.0	78	65.7	0	0	---	0.00	29.717 
02:10	72.8	72.8	72.8	78	65.5	0	0	---	0.00	29.717 
02:15	72.7	72.7	72.7	78	65.4	0	0	---	0.00	29.721 
02:20	72.7	72.7	72.7	78	65.4	0	0	---	0.00	29.721 
02:25	72.5	72.5	72.5	78	65.2	0	0	---	0.00	29.721 
02:30	72.3	72.3	72.3	78	65.0	0	0	---	0.00	29.723 
02:35	72.3	72.3	72.3	79	65.4	0	0	---	0.00	29.723 
02:40	72.1	72.1	72.1	78	64.8	0	0	---	0.00	29.723 
02:45	72.0	72.0	72.0	78	64.8	0	0	---	0.00	29.723 
02:50	72.0	72.0	72.0	78	64.8	0	0	---	0.00	29.723 
02:55	71.8	71.8	71.8	78	64.6	0	0	---	0.00	29.723 
03:00	71.6	71.6	71.6	79	64.7	0	0	---	0.00	29.731 
03:05	71.5	71.5	71.5	79	64.6	0	0	---	0.00	29.731 
03:10	71.3	71.3	71.3	79	64.4	0	0	---	0.00	29.731 
03:15	70.9	70.9	70.9	80	64.4	0	0	---	0.00	29.736 
03:20	70.8	70.8	70.8	81	64.7	0	0	---	0.00	29.736 
03:25	70.6	70.6	70.6	82	64.8	0	1	292	0.00	29.736 
03:30	70.4	70.4	70.4	82	64.6	0	0	---	0.00	29.748 
03:35	70.4	70.4	70.4	83	65.0	0	1	292	0.00	29.748 
03:40	70.4	70.4	70.4	83	65.0	0	1	292	0.00	29.748 
03:45	70.3	70.3	70.3	84	65.2	0	1	292	0.00	29.753 
03:50	70.1	70.1	70.1	84	65.0	0	0	---	0.00	29.753 
03:55	69.9	69.9	69.9	84	64.8	0	0	---	0.00	29.753 
04:00	69.6	69.6	69.6	84	64.5	0	0	---	0.00	29.755 
04:05	69.4	69.4	69.4	84	64.3	0	0	---	0.00	29.755 
04:10	69.3	69.3	69.3	85	64.6	0	0	---	0.00	29.755 
04:15	68.9	68.9	68.9	85	64.2	0	0	---	0.00	29.764 
04:20	68.8	68.8	68.8	86	64.4	0	0	---	0.00	29.764 
04:25	68.6	68.6	68.6	86	64.2	0	0	---	0.00	29.764 
04:30	68.4	68.4	68.4	87	64.4	0	0	---	0.00	29.772 
04:35	68.3	68.3	68.3	87	64.3	0	0	---	0.00	29.772 
04:40	68.1	68.1	68.1	88	64.4	0	0	---	0.00	29.772 
04:45	67.9	67.9	67.9	88	64.2	0	0	---	0.00	29.773 
04:50	67.8	67.8	67.8	88	64.1	0	0	---	0.00	29.773 
04:55	67.6	67.6	67.6	88	63.9	0	0	---	0.00	29.773 
05:00	67.4	67.4	67.4	89	64.0	0	0	---	0.00	29.774 
05:05	67.3	67.3	67.3	89	63.9	0	0	---	0.00	29.774 
05:10	67.3	67.3	67.3	89	63.9	0	0	---	0.00	29.774 
05:15	67.3	67.3	67.3	89	63.9	0	0	---	0.00	29.783 
05:20	67.1	67.1	67.1	90	64.1	0	0	---	0.00	29.783 
05:25	66.9	66.9	66.9	90	63.9	0	0	---	0.00	29.783 
05:30	66.9	66.9	66.9	90	63.9	0	0	---	0.00	29.783 
05:35	66.8	66.8	66.8	90	63.8	0	0	---	0.00	29.783 
05:40	66.8	66.8	66.8	90	63.8	0	0	---	0.00	29.783 
05:45	66.6	66.6	66.6	91	63.9	0	0	---	0.00	29.788 
05:50	66.4	66.4	66.4	91	63.7	0	0	---	0.00	29.788 
05:55	66.4	66.4	66.4	91	63.7	0	0	---	0.00	29.788 
06:00	66.4	66.4	66.4	91	63.7	0	0	---	0.00	29.790 
06:05	66.3	66.3	66.3	91	63.6	0	0	---	0.00	29.790 
06:10	66.1	66.1	66.1	91	63.4	0	0	---	0.00	29.790 
06:15	66.0	66.0	66.0	91	63.3	0	0	---	0.00	29.791 
06:20	66.0	66.0	66.0	92	63.6	0	0	---	0.00	29.791 
06:25	65.8	65.8	65.8	92	63.4	0	0	---	0.00	29.791 
06:30	65.6	65.6	65.6	92	63.2	0	0	---	0.00	29.796 
06:35	65.6	65.6	65.6	92	63.2	0	0	---	0.00	29.796 
06:40	65.8	65.8	65.8	92	63.4	0	0	---	0.00	29.796 
06:45	65.8	65.8	65.8	92	63.4	0	0	---	0.00	29.802 
06:50	65.6	65.6	65.6	92	63.2	0	0	---	0.00	29.802 
06:55	65.6	65.6	65.6	92	63.2	0	0	---	0.00	29.802 
07:00	65.6	65.6	65.6	92	63.2	0	0	---	0.00	29.804 
07:05	65.8	65.8	65.8	92	63.4	0	0	---	0.00	29.804 
07:10	65.8	65.8	65.8	92	63.4	0	0	---	0.00	29.804 
07:15	65.8	65.8	65.8	93	63.7	0	0	---	0.00	29.805 
07:20	66.0	66.0	66.0	93	63.9	0	0	---	0.00	29.805 
07:25	66.3	66.3	66.3	93	64.2	0	0	---	0.00	29.805 
07:30	66.6	66.6	66.6	93	64.5	0	0	---	0.00	29.803 
07:35	67.1	67.1	67.1	93	65.0	0	0	---	0.00	29.803 
07:40	67.6	67.6	67.6	93	65.5	0	0	---	0.00	29.803 
07:45	68.1	68.1	68.1	93	66.0	0	0	---	0.00	29.803 
07:50	68.9	68.9	68.9	92	66.5	0	0	---	0.00	29.803 
07:55	69.4	69.4	69.4	92	67.0	0	0	---	0.00	29.803 
08:00	70.6	70.6	70.6	91	67.8	0	1	292	0.00	29.801 
08:05	71.5	71.5	71.5	88	67.7	1	3	292	0.00	29.801 
08:10	72.0	72.0	72.0	85	67.2	1	3	292	0.00	29.801 
08:15	73.0	73.0	73.0	83	67.5	0	1	292	0.00	29.801 
08:20	74.0	74.0	74.0	80	67.4	0	1	292	0.00	29.801 
08:25	74.9	74.9	74.9	77	67.2	0	1	292	0.00	29.801 
08:30	75.6	75.6	76.9	75	67.1	0	2	292	0.00	29.800 
08:35	76.3	76.3	77.8	73	67.0	0	1	292	0.00	29.800 
08:40	76.8	76.8	78.5	73	67.5	0	1	292	0.00	29.800 
08:45	77.4	77.4	79.3	70	66.8	0	1	292	0.00	29.800 
08:50	77.9	77.9	79.8	68	66.5	0	2	292	0.00	29.800 
08:55	78.3	78.3	80.4	69	67.3	0	1	292	0.00	29.800 
09:00	78.6	78.6	80.8	69	67.6	0	2	292	0.00	29.801 
09:05	78.6	78.6	80.7	67	66.7	0	2	292	0.00	29.801 
09:10	78.8	78.8	80.9	66	66.5	0	2	292	0.00	29.801 
09:15	78.8	78.8	80.9	67	66.9	0	2	292	0.00	29.807 
09:20	79.2	79.2	81.4	66	66.8	1	2	292	0.00	29.807 
09:25	79.6	79.6	82.0	67	67.7	0	2	292	0.00	29.807 
09:30	79.6	79.6	81.9	66	67.2	0	1	292	0.00	29.810 
09:35	79.6	79.6	81.9	66	67.2	0	2	292	0.00	29.810 
09:40	79.4	79.4	81.7	67	67.5	0	2	292	0.00	29.810 
09:45	78.8	78.8	80.9	67	66.9	1	3	292	0.00	29.813 
09:50	78.5	78.5	80.6	68	67.0	1	2	292	0.00	29.813 
09:55	78.6	78.6	80.8	69	67.6	0	2	292	0.00	29.813 
10:00	79.2	79.2	81.5	68	67.7	1	3	292	0.00	29.808 
10:05	79.4	79.4	81.7	67	67.5	1	3	292	0.00	29.808 
10:10	79.6	79.6	81.8	65	66.8	1	3	292	0.00	29.808 
10:15	79.8	79.8	82.0	64	66.5	1	3	292	0.00	29.803 
10:20	80.1	80.1	82.6	66	67.7	0	1	292	0.00	29.803 
10:25	80.9	80.9	83.1	61	66.2	0	2	338	0.00	29.803 
10:30	81.6	81.6	83.9	60	66.3	0	2	338	0.00	29.800 
10:35	81.8	81.8	83.8	58	65.6	0	3	338	0.00	29.800 
10:40	82.2	82.2	84.9	61	67.4	0	1	338	0.00	29.800 
10:45	82.8	82.8	85.2	58	66.5	0	2	338	0.00	29.800 
10:50	83.2	83.2	85.3	56	65.8	1	4	202	0.00	29.800 
10:55	83.6	83.6	86.1	57	66.7	1	3	202	0.00	29.800 
11:00	83.4	83.4	85.8	57	66.5	1	3	292	0.00	29.803 
11:05	84.1	84.1	87.2	58	67.7	0	2	45	0.00	29.803 
11:10	84.1	84.1	86.9	57	67.2	1	3	22	0.00	29.803 
11:15	84.0	84.0	85.6	52	64.4	2	4	270	0.00	29.809 
11:20	84.0	84.0	85.8	53	65.0	0	3	270	0.00	29.809 
11:25	84.5	84.5	86.7	54	66.0	1	5	90	0.00	29.809 
11:30	84.9	84.9	87.1	53	65.8	1	2	248	0.00	29.811 
11:35	85.3	85.3	87.1	51	65.1	1	3	248	0.00	29.811 
11:40	85.3	85.3	87.1	51	65.1	1	3	248	0.00	29.811 
11:45	85.5	85.5	87.4	51	65.3	1	3	248	0.00	29.814 
11:50	85.5	85.5	86.6	48	63.5	1	4	248	0.00	29.814 
11:55	85.5	85.5	86.9	49	64.1	2	5	292	0.00	29.814 
12:00	85.3	85.3	85.9	46	62.1	2	4	270	0.00	29.812 
12:05	85.5	85.5	86.4	47	62.9	1	5	292	0.00	29.812 
12:10	85.7	85.7	86.4	46	62.5	2	5	248	0.00	29.812 
12:15	85.5	85.5	85.9	45	61.7	2	4	292	0.00	29.815 
12:20	85.9	85.9	86.2	44	61.4	2	4	292	0.00	29.815 
12:25	85.9	85.9	86.7	46	62.7	2	4	270	0.00	29.815 
12:30	85.9	85.9	86.2	44	61.4	2	5	270	0.00	29.814 
12:35	86.1	86.1	87.0	46	62.9	2	4	270	0.00	29.814 
12:40	86.5	86.5	87.0	44	62.0	1	4	248	0.00	29.814 
12:45	86.5	86.5	87.5	46	63.2	1	3	248	0.00	29.813 
12:50	87.2	87.2	87.4	42	61.3	2	3	248	0.00	29.813 
12:55	86.7	86.7	86.7	42	60.8	1	3	248	0.00	29.813 
13:00	86.3	86.3	86.0	41	59.8	2	4	270	0.00	29.814 
13:05	86.5	86.5	87.2	45	62.6	1	3	270	0.00	29.814 
13:10	86.7	86.7	87.5	45	62.8	1	3	270	0.00	29.814 
13:15	87.0	87.0	87.4	43	61.8	1	4	248	0.00	29.812 
13:20	87.6	87.6	87.6	41	60.9	1	3	248	0.00	29.812 
13:25	88.4	88.4	89.3	43	63.0	1	3	270	0.00	29.812 
13:30	88.4	88.4	88.4	40	61.0	1	4	248	0.00	29.815 
13:35	88.2	88.2	87.6	38	59.3	2	4	315	0.00	29.815 
13:40	88.4	88.4	88.2	39	60.3	1	4	270	0.00	29.815 
13:45	88.2	88.2	88.2	40	60.8	2	4	270	0.00	29.808 
13:50	88.4	88.4	87.9	38	59.5	1	4	270	0.00	29.808 
13:55	88.4	88.4	87.6	37	58.8	2	4	270	0.00	29.808 
14:00	88.4	88.4	88.2	39	60.3	2	6	270	0.00	29.805 
14:05	89.0	89.0	89.0	39	60.8	1	3	270	0.00	29.805 
14:10	88.8	88.8	88.7	39	60.6	2	5	270	0.00	29.805 
14:15	88.2	88.2	87.6	38	59.3	1	3	270	0.00	29.799 
14:20	88.2	88.2	88.4	41	61.5	2	4	270	0.00	29.799 
14:25	88.2	88.2	88.4	41	61.5	1	4	248	0.00	29.799 
14:30	88.4	88.4	89.3	43	63.0	1	4	292	0.00	29.793 
14:35	88.6	88.6	89.0	41	61.8	1	4	112	0.00	29.793 
14:40	88.4	88.4	89.0	42	62.3	2	11	112	0.00	29.793 
14:45	88.2	88.2	89.7	45	64.1	1	4	90	0.00	29.783 
14:50	88.2	88.2	88.2	40	60.8	2	4	248	0.00	29.783 
14:55	88.2	88.2	88.4	41	61.5	2	5	292	0.00	29.783 
15:00	88.4	88.4	89.0	42	62.3	1	5	90	0.00	29.785 
15:05	88.2	88.2	88.2	40	60.8	2	5	270	0.00	29.785 
15:10	88.2	88.2	87.6	38	59.3	2	5	225	0.00	29.785 
15:15	88.4	88.4	87.9	38	59.5	2	4	225	0.00	29.784 
15:20	88.4	88.4	88.2	39	60.3	2	4	270	0.00	29.784 
15:25	88.4	88.4	89.3	43	63.0	2	6	292	0.00	29.784 
15:30	88.2	88.2	89.3	44	63.5	1	4	270	0.00	29.780 
15:35	87.8	87.8	89.1	45	63.8	1	4	315	0.00	29.780 
15:40	87.2	87.2	87.6	43	61.9	2	5	270	0.00	29.780 
15:45	86.3	86.3	87.2	46	63.0	2	5	248	0.00	29.783 
15:50	85.7	85.7	86.9	48	63.7	1	6	338	0.00	29.783 
15:55	85.3	85.3	86.1	47	62.8	1	3	338	0.00	29.783 
16:00	84.7	84.7	85.6	48	62.8	1	4	292	0.00	29.786 
16:05	84.3	84.3	85.3	49	63.0	1	4	292	0.00	29.786 
16:10	84.0	84.0	85.1	50	63.3	1	3	270	0.00	29.786 
16:15	83.8	83.8	85.1	51	63.7	1	5	270	0.00	29.789 
16:20	83.6	83.6	84.8	51	63.5	2	10	270	0.00	29.789 
16:25	83.2	83.2	84.5	52	63.7	1	5	270	0.00	29.789 
16:30	82.4	82.4	84.6	58	66.1	2	5	248	0.01	29.788 
16:35	79.6	79.6	81.8	65	66.8	1	4	248	0.00	29.788 
16:40	77.4	77.4	79.3	71	67.2	0	3	248	0.00	29.788 
16:45	77.0	77.0	78.7	74	68.1	0	2	248	0.00	29.779 
16:50	77.4	77.4	79.3	76	69.2	0	2	248	0.00	29.779 
16:55	77.7	77.7	79.7	72	67.9	1	2	248	0.00	29.779 
17:00	78.3	78.3	80.5	72	68.5	1	3	248	0.00	29.794 
17:05	79.0	79.0	81.4	70	68.4	1	3	248	0.00	29.794 
17:10	79.2	79.2	81.6	69	68.1	1	3	248	0.00	29.794 
17:15	78.6	78.6	80.7	68	67.1	1	3	292	0.00	29.811 
17:20	78.3	78.3	80.3	67	66.4	1	7	292	0.00	29.811 
17:25	77.6	77.6	79.5	67	65.8	2	7	292	0.00	29.811 
17:30	77.0	77.0	78.8	67	65.2	2	7	270	0.00	29.827 
17:35	76.1	76.1	77.8	70	65.6	2	7	292	0.00	29.827 
17:40	75.1	75.1	76.5	73	65.8	1	5	315	0.00	29.827 
17:45	74.6	74.6	74.6	75	66.1	1	3	315	0.00	29.816 
17:50	74.4	74.4	74.4	79	67.4	0	2	315	0.01	29.816 
17:55	74.2	74.2	74.2	81	68.0	0	2	0	0.00	29.816 
18:00	74.4	74.4	74.4	81	68.2	0	1	0	0.00	29.811 
18:05	74.7	74.7	74.7	81	68.5	0	1	0	0.00	29.811 
18:10	75.3	75.3	76.1	79	68.3	1	3	315	0.00	29.811 
18:15	75.6	75.6	76.8	76	67.5	1	3	315	0.00	29.810 
18:20	76.0	76.0	77.4	74	67.1	0	2	315	0.00	29.810 
18:25	76.1	76.1	77.5	74	67.2	0	2	315	0.00	29.810 
18:30	76.3	76.3	77.8	73	67.0	0	1	315	0.00	29.808 
18:35	76.7	76.7	78.4	72	67.0	0	2	315	0.00	29.808 
18:40	77.0	77.0	78.8	70	66.4	0	2	315	0.00	29.808 
18:45	77.7	77.7	79.6	69	66.7	0	2	315	0.00	29.807 
18:50	78.1	78.1	80.1	69	67.1	0	3	315	0.00	29.807 
18:55	78.5	78.5	80.5	67	66.6	0	1	315	0.00	29.807 
19:00	78.8	78.8	80.8	65	66.0	1	3	315	0.00	29.812 
19:05	79.2	79.2	81.1	63	65.5	1	3	315	0.00	29.812 
19:10	79.2	79.2	81.1	62	65.0	1	3	315	0.00	29.812 
19:15	79.4	79.4	81.3	62	65.2	1	3	315	0.00	29.808 
19:20	79.6	79.6	81.3	60	64.5	2	4	270	0.00	29.808 
19:25	79.6	79.6	81.4	61	64.9	2	4	270	0.00	29.808 
19:30	79.6	79.6	81.4	61	64.9	1	1	270	0.00	29.819 
19:35	79.6	79.6	81.3	60	64.5	1	3	270	0.00	29.819 
19:40	79.6	79.6	81.4	61	64.9	1	4	270	0.00	29.819 
19:45	79.4	79.4	81.2	61	64.8	1	3	292	0.00	29.822 
19:50	79.2	79.2	81.0	61	64.6	1	5	292	0.00	29.822 
19:55	79.0	79.0	80.8	61	64.4	1	3	270	0.00	29.822 
20:00	78.8	78.8	80.6	62	64.7	1	3	270	0.00	29.827 
20:05	78.6	78.6	80.4	62	64.5	1	3	270	0.00	29.827 
20:10	78.5	78.5	80.3	62	64.4	2	3	270	0.00	29.827 
20:15	78.1	78.1	79.9	63	64.5	1	4	270	0.00	29.824 
20:20	77.9	77.9	79.7	64	64.7	0	2	270	0.00	29.824 
20:25	77.7	77.7	79.5	65	65.0	0	2	270	0.00	29.824 
20:30	77.6	77.6	79.4	65	64.9	0	1	270	0.00	29.825 
20:35	77.4	77.4	79.2	66	65.1	0	3	270	0.00	29.825 
20:40	77.0	77.0	78.8	67	65.2	0	2	270	0.00	29.825 
20:45	76.8	76.8	78.6	67	65.0	0	3	270	0.00	29.831 
20:50	76.5	76.5	78.3	68	65.1	0	1	270	0.00	29.831 
20:55	76.3	76.3	78.0	69	65.4	0	1	270	0.00	29.831 
21:00	76.1	76.1	77.8	70	65.6	0	1	270	0.00	29.834 
21:05	75.8	75.8	77.4	71	65.7	0	0	---	0.00	29.834 
21:10	75.6	75.6	77.1	72	65.9	0	0	---	0.00	29.834 
21:15	75.4	75.4	76.8	73	66.1	0	0	---	0.00	29.836 
21:20	75.3	75.3	76.6	74	66.4	0	0	---	0.00	29.836 
21:25	75.1	75.1	76.3	75	66.6	0	0	---	0.00	29.836 
21:30	74.9	74.9	74.9	75	66.4	0	0	---	0.00	29.845 
21:35	74.7	74.7	74.7	76	66.6	0	0	---	0.00	29.845 
21:40	74.6	74.6	74.6	77	66.9	0	0	---	0.00	29.845 
21:45	74.6	74.6	74.6	77	66.9	0	0	---	0.00	29.848 
21:50	74.4	74.4	74.4	78	67.1	0	0	---	0.00	29.848 
21:55	74.2	74.2	74.2	78	66.9	0	0	---	0.00	29.848 
22:00	74.0	74.0	74.0	79	67.1	0	0	---	0.00	29.852 
22:05	73.9	73.9	73.9	79	67.0	0	0	---	0.00	29.852 
22:10	73.7	73.7	73.7	80	67.1	0	0	---	0.00	29.852 
22:15	73.5	73.5	73.5	80	66.9	0	0	---	0.00	29.853 
22:20	73.3	73.3	73.3	81	67.1	0	0	---	0.00	29.853 
22:25	73.0	73.0	73.0	81	66.8	0	0	---	0.00	29.853 
22:30	72.8	72.8	72.8	82	67.0	0	0	---	0.00	29.858 
22:35	72.7	72.7	72.7	82	66.9	0	0	---	0.00	29.858 
22:40	72.5	72.5	72.5	83	67.0	0	0	---	0.00	29.858 
22:45	72.5	72.5	72.5	84	67.4	0	0	---	0.00	29.861 
22:50	72.3	72.3	72.3	84	67.2	0	0	---	0.00	29.861 
22:55	72.3	72.3	72.3	84	67.2	0	0	---	0.00	29.861 
23:00	72.1	72.1	72.1	84	67.0	0	0	---	0.00	29.864 
23:05	72.1	72.1	72.1	85	67.3	0	0	---	0.00	29.864 
23:10	71.8	71.8	71.8	85	67.0	0	0	---	0.00	29.864 
23:15	71.6	71.6	71.6	85	66.8	0	0	---	0.00	29.864 
23:20	71.5	71.5	71.5	85	66.7	0	0	---	0.00	29.864 
23:25	71.3	71.3	71.3	86	66.9	0	0	---	0.00	29.864 
23:30	71.1	71.1	71.1	86	66.7	0	0	---	0.00	29.863 
23:35	70.9	70.9	70.9	87	66.8	0	0	---	0.00	29.863 
23:40	70.8	70.8	70.8	87	66.7	0	0	---	0.00	29.863 
23:45	70.6	70.6	70.6	87	66.5	0	0	---	0.00	29.867 
23:50	70.6	70.6	70.6	87	66.5	0	0	---	0.00	29.867 
23:55	70.4	70.4	70.4	87	66.3	0	0	---	0.00	29.867 

CoCoRaHS
IN-AL-39
A2 Web Hosting
Creative Commons License
GoDaddy
search engine by freefind advanced

loaded 2018-11-13 23:21:42 • last modified 2010-11-18 10:43:29
Privacy PolicyDisclaimer
• wx.awcolley.com is powered by PmWiki v.2002016 •
• all content (unless otherwise noted) © 2018 A W Colley